Time;durP1;ratioP1;P1;durP2;ratioP2;P2;SDS_P1;SDS_P2;PMS_P1;PMS_P2;Temp;Humidity;BMP_temperature;BMP_pressure;BME280_temperature;BME280_humidity;BME280_pressure;Samples;Min_cycle;Max_cycle;Signal;HPM_P1;HPM_P2
2022/09/20 00:03:00;;;;;;;8.53;2.67;;;;;;;8.80;99.85;100287.20;3417934;85;98266;-86
2022/09/20 00:08:03;;;;;;;5.08;2.35;;;;;;;8.75;100.00;100294.94;3437292;83;26415;-86
2022/09/20 00:13:07;;;;;;;5.37;2.50;;;;;;;8.70;100.00;100287.82;3417245;85;98428;-86
2022/09/20 00:18:08;;;;;;;4.97;2.47;;;;;;;8.66;100.00;100293.02;3434065;84;26459;-86
2022/09/20 00:23:09;;;;;;;6.67;3.00;;;;;;;8.66;100.00;100293.81;3414281;83;98434;-86
2022/09/20 00:28:10;;;;;;;6.47;3.07;;;;;;;8.64;100.00;100293.41;3446219;83;33763;-86
2022/09/20 00:33:11;;;;;;;6.70;2.57;;;;;;;8.62;100.00;100292.95;3432119;84;98695;-86
2022/09/20 00:38:13;;;;;;;5.00;2.27;;;;;;;8.55;100.00;100296.97;3445022;83;33257;-86
2022/09/20 00:43:17;;;;;;;4.77;2.47;;;;;;;8.56;100.00;100296.40;3429163;83;98748;-86
2022/09/20 00:48:26;;;;;;;5.47;2.63;;;;;;;8.53;100.00;100291.06;3443134;83;26424;-86
2022/09/20 00:53:39;;;;;;;6.70;2.50;;;;;;;8.52;100.00;100293.59;3421752;84;98925;-86
2022/09/20 00:58:45;;;;;;;5.67;2.77;;;;;;;8.52;100.00;100291.42;3436787;85;26367;-85
2022/09/20 01:03:47;;;;;;;6.45;2.83;;;;;;;8.51;100.00;100299.45;3423623;85;98346;-86
2022/09/20 01:08:52;;;;;;;4.67;2.23;;;;;;;8.49;100.00;100297.06;3412238;84;26528;-85
2022/09/20 01:13:53;;;;;;;6.30;2.60;;;;;;;8.48;100.00;100291.94;3427639;84;98371;-86
2022/09/20 01:18:58;;;;;;;6.43;2.90;;;;;;;8.44;100.00;100300.67;3405670;84;33219;-86
2022/09/20 01:24:35;;;;;;;6.50;2.55;;;;;;;8.41;100.00;100309.05;3419193;84;98610;-86
2022/09/20 01:29:53;;;;;;;6.85;2.83;;;;;;;8.39;100.00;100316.08;3437329;84;26467;-86
2022/09/20 01:34:58;;;;;;;8.60;3.50;;;;;;;8.37;100.00;100321.93;3434629;84;98648;-86
2022/09/20 01:40:29;;;;;;;6.53;2.93;;;;;;;8.33;100.00;100320.25;3436146;84;26346;-86
2022/09/20 01:45:32;;;;;;;5.87;2.72;;;;;;;8.25;100.00;100322.67;3419438;84;98400;-85
2022/09/20 01:51:00;;;;;;;6.30;2.90;;;;;;;8.16;100.00;100320.70;3401904;84;29410;-85
2022/09/20 01:56:44;;;;;;;5.70;3.03;;;;;;;8.10;100.00;100316.10;3433217;84;98372;-86
2022/09/20 02:01:56;;;;;;;7.08;3.17;;;;;;;8.02;100.00;100317.70;3409989;85;98786;-86
2022/09/20 02:07:33;;;;;;;6.60;2.93;;;;;;;8.02;100.00;100313.00;3423308;85;26455;-86
2022/09/20 02:13:04;;;;;;;5.50;2.92;;;;;;;8.04;100.00;100321.67;3419706;85;98511;-86
2022/09/20 02:18:41;;;;;;;7.03;3.23;;;;;;;8.06;100.00;100324.02;3348848;85;34190;-86
2022/09/20 02:24:17;;;;;;;7.00;3.40;;;;;;;8.06;100.00;100328.94;3420578;84;98284;-86
2022/09/20 02:29:44;;;;;;;5.77;2.97;;;;;;;8.09;100.00;100324.69;3429570;84;25926;-86
2022/09/20 02:35:24;;;;;;;6.78;3.40;;;;;;;8.08;100.00;100327.98;3420313;84;98368;-85
2022/09/20 02:40:39;;;;;;;8.43;3.07;;;;;;;8.07;100.00;100330.52;3437129;84;26371;-85
2022/09/20 02:45:49;;;;;;;4.93;2.53;;;;;;;8.12;100.00;100328.86;3419306;85;98277;-86
2022/09/20 02:51:10;;;;;;;6.37;2.67;;;;;;;8.11;100.00;100337.44;3433961;85;26156;-86
2022/09/20 02:56:44;;;;;;;8.00;3.20;;;;;;;8.03;100.00;100328.31;3424124;83;25914;-86
2022/09/20 03:02:08;;;;;;;6.87;2.72;;;;;;;8.11;100.00;100349.20;3428587;83;98596;-85
2022/09/20 03:07:49;;;;;;;6.30;2.70;;;;;;;8.08;100.00;100354.02;3436852;84;26294;-85
2022/09/20 03:13:19;;;;;;;5.58;2.58;;;;;;;8.09;100.00;100352.09;3430001;83;98625;-85
2022/09/20 03:19:00;;;;;;;5.87;3.03;;;;;;;8.06;100.00;100352.80;3436848;83;26029;-85
2022/09/20 03:24:30;;;;;;;7.30;2.97;;;;;;;8.07;100.00;100355.78;3433591;85;98794;-85
2022/09/20 03:29:49;;;;;;;7.23;3.30;;;;;;;8.03;100.00;100350.23;3435179;85;25903;-85
2022/09/20 03:35:28;;;;;;;7.33;3.05;;;;;;;8.00;100.00;100357.80;3445121;83;98432;-85
2022/09/20 03:40:49;;;;;;;6.90;2.93;;;;;;;8.00;100.00;100365.21;3418124;85;26240;-85
2022/09/20 03:46:19;;;;;;;8.57;3.10;;;;;;;8.02;100.00;100371.14;3442746;85;98474;-85
2022/09/20 03:52:04;;;;;;;6.73;2.97;;;;;;;8.06;100.00;100359.09;3369829;85;98725;-85
2022/09/20 03:57:26;;;;;;;4.40;2.30;;;;;;;8.11;100.00;100368.39;3440932;84;26003;-85
2022/09/20 04:03:00;;;;;;;6.17;2.50;;;;;;;8.18;100.00;100369.12;3407054;84;98721;-85
2022/09/20 04:08:44;;;;;;;4.47;2.30;;;;;;;8.21;100.00;100376.06;3461439;82;25806;-85
2022/09/20 04:14:17;;;;;;;5.60;2.63;;;;;;;8.21;100.00;100371.95;3468017;82;98322;-85
2022/09/20 04:19:38;;;;;;;5.80;2.63;;;;;;;8.25;100.00;100381.05;3479689;82;26449;-85
2022/09/20 04:24:59;;;;;;;7.05;2.80;;;;;;;8.26;100.00;100381.26;3463850;82;98554;-84
2022/09/20 04:30:21;;;;;;;5.10;2.60;;;;;;;8.24;100.00;100391.00;3488321;82;26451;-84
2022/09/20 04:41:50;;;;;;;6.35;3.10;;;;;;;8.19;100.00;100398.88;3488846;82;98413;-85
2022/09/20 04:47:18;;;;;;;7.87;2.90;;;;;;;8.12;100.00;100400.13;3464288;84;33304;-85
2022/09/20 04:52:59;;;;;;;4.00;2.00;;;;;;;7.99;100.00;100405.54;3466717;84;98736;-85
2022/09/20 04:58:37;;;;;;;8.27;2.90;;;;;;;7.96;100.00;100404.10;3440435;84;33301;-85
2022/09/20 05:04:27;;;;;;;7.35;3.05;;;;;;;7.91;100.00;100412.61;3424276;83;98717;-83
2022/09/20 05:09:57;;;;;;;6.13;2.90;;;;;;;7.88;100.00;100411.94;3428122;83;25952;-84
2022/09/20 05:15:22;;;;;;;8.83;2.90;;;;;;;7.88;100.00;100415.48;3417448;84;98229;-84
2022/09/20 05:20:43;;;;;;;5.43;2.87;;;;;;;7.90;100.00;100424.72;3433349;83;26025;-84
2022/09/20 05:26:07;;;;;;;4.40;2.27;;;;;;;7.96;100.00;100430.91;3432029;83;98251;-84
2022/09/20 05:31:16;;;;;;;7.77;3.63;;;;;;;8.09;100.00;100435.69;3388004;83;98628;-85
2022/09/20 05:36:44;;;;;;;7.77;3.07;;;;;;;8.21;100.00;100434.20;3416540;85;25986;-86
2022/09/20 05:42:11;;;;;;;7.50;3.10;;;;;;;8.29;100.00;100433.98;3431376;83;98341;-86
2022/09/20 05:47:21;;;;;;;9.33;3.07;;;;;;;8.42;100.00;100445.60;3428350;84;31399;-87
2022/09/20 05:52:58;;;;;;;6.17;2.83;;;;;;;8.55;100.00;100439.59;3417317;84;98324;-87
2022/09/20 05:58:28;;;;;;;10.13;3.42;;;;;;;8.69;100.00;100446.73;3417254;84;25932;-87
2022/09/20 06:03:54;;;;;;;7.23;3.30;;;;;;;8.83;100.00;100448.36;3419172;84;98940;-87
2022/09/20 06:09:10;;;;;;;8.30;3.77;;;;;;;8.98;100.00;100452.14;3421650;84;26622;-87
2022/09/20 06:14:24;;;;;;;10.87;4.80;;;;;;;9.14;100.00;100455.56;3414927;84;98677;-88
2022/09/20 06:19:53;;;;;;;8.30;5.13;;;;;;;9.28;100.00;100458.56;3414846;84;26523;-86
2022/09/20 06:25:24;;;;;;;10.30;5.30;;;;;;;9.36;100.00;100463.80;3381389;84;98383;-86
2022/09/20 06:30:43;;;;;;;8.73;5.07;;;;;;;9.45;100.00;100462.98;3414795;84;26708;-86
2022/09/20 06:41:40;;;;;;;29.87;7.80;;;;;;;9.67;100.00;100475.88;3416471;83;98607;-86
2022/09/20 06:46:41;;;;;;;11.43;7.27;;;;;;;9.81;100.00;100486.30;3436753;84;26204;-87
2022/09/20 06:51:42;;;;;;;11.47;7.13;;;;;;;9.89;100.00;100480.53;3409879;85;99082;-87
2022/09/20 06:56:45;;;;;;;11.87;7.70;;;;;;;10.02;100.00;100484.63;3420574;84;33330;-88
2022/09/20 07:01:46;;;;;;;12.20;7.23;;;;;;;10.15;100.00;100489.36;3426320;84;99024;-88
2022/09/20 07:06:47;;;;;;;12.53;7.50;;;;;;;10.25;100.00;100497.74;3450676;83;33767;-88
2022/09/20 07:11:48;;;;;;;10.17;6.87;;;;;;;10.40;100.00;100503.65;3364801;85;98931;-88
2022/09/20 07:16:49;;;;;;;11.07;7.13;;;;;;;10.56;100.00;100513.07;3352120;86;33762;-88
2022/09/20 07:21:50;;;;;;;10.37;6.93;;;;;;;10.74;100.00;100516.25;3438250;84;99174;-87
2022/09/20 07:27:03;;;;;;;8.80;5.93;;;;;;;10.93;100.00;100530.43;3464062;83;33703;-89
2022/09/20 07:32:04;;;;;;;11.65;6.55;;;;;;;11.09;100.00;100533.18;3454232;84;98734;-88
2022/09/20 07:37:06;;;;;;;8.90;5.40;;;;;;;11.30;100.00;100540.29;3454899;84;34334;-89
2022/09/20 07:42:07;;;;;;;10.87;5.77;;;;;;;11.46;100.00;100555.97;3431673;84;98769;-90
2022/09/20 07:47:10;;;;;;;9.80;5.80;;;;;;;11.63;100.00;100563.66;3452631;83;33575;-89
2022/09/20 07:52:10;;;;;;;11.73;5.80;;;;;;;11.85;100.00;100568.76;3447248;83;99028;-88
2022/09/20 07:57:12;;;;;;;12.23;5.90;;;;;;;11.95;100.00;100574.34;3432343;84;33280;-88
2022/09/20 08:02:14;;;;;;;10.23;5.07;;;;;;;12.06;100.00;100577.20;3408570;85;99551;-90
2022/09/20 08:07:15;;;;;;;10.37;4.93;;;;;;;12.07;100.00;100562.23;3394018;84;26424;-90
2022/09/20 08:12:18;;;;;;;10.23;4.90;;;;;;;12.31;100.00;100585.08;3417945;84;99305;-89
2022/09/20 08:17:19;;;;;;;10.03;5.17;;;;;;;12.55;100.00;100591.32;3412922;84;25811;-91
2022/09/20 08:22:20;;;;;;;10.83;5.43;;;;;;;12.55;100.00;100591.32;3419259;84;99292;-90
2022/09/20 08:27:21;;;;;;;10.60;4.67;;;;;;;12.70;100.00;100597.91;3418533;85;34581;-92
2022/09/20 08:32:22;;;;;;;8.20;4.60;;;;;;;12.90;100.00;100599.19;3391358;84;99083;-92
2022/09/20 08:37:23;;;;;;;9.07;4.63;;;;;;;13.12;100.00;100602.84;3422994;84;33797;-92
2022/09/20 08:42:31;;;;;;;9.93;4.87;;;;;;;13.42;100.00;100606.11;3410734;84;98799;-94
2022/09/20 08:47:49;;;;;;;7.80;4.23;;;;;;;13.58;100.00;100601.78;3414888;84;25938;-92
2022/09/20 08:52:55;;;;;;;12.90;4.50;;;;;;;13.88;100.00;100602.80;3398325;84;98942;-94
2022/09/20 08:57:57;;;;;;;6.50;4.30;;;;;;;14.20;100.00;100605.81;3417250;84;26194;-96
2022/09/20 09:03:06;;;;;;;6.10;3.65;;;;;;;14.58;100.00;100602.19;3417228;85;98692;-96
2022/09/20 09:08:17;;;;;;;8.68;3.52;;;;;;;14.96;99.02;100594.93;3438587;84;26442;-95
2022/09/20 09:13:32;;;;;;;10.05;3.42;;;;;;;15.23;97.89;100595.99;3436432;83;98393;-95
2022/09/20 09:18:38;;;;;;;6.12;2.95;;;;;;;15.75;96.39;100604.02;3430842;84;26358;-95
2022/09/20 09:23:47;;;;;;;6.83;2.77;;;;;;;16.02;96.21;100608.39;3411639;83;98917;-92
2022/09/20 09:29:20;;;;;;;5.35;2.87;;;;;;;16.63;96.94;100594.94;3412175;83;25950;-93
2022/09/20 09:34:34;;;;;;;4.22;2.60;;;;;;;17.35;94.73;100598.61;3433591;85;98921;-92
2022/09/20 09:39:36;;;;;;;2.83;1.87;;;;;;;18.09;93.39;100606.04;3426025;83;26642;-93
2022/09/20 09:44:37;;;;;;;7.37;2.58;;;;;;;18.96;91.86;100595.91;3421783;83;98366;-93
2022/09/20 09:49:45;;;;;;;5.00;2.70;;;;;;;19.56;88.83;100596.83;3428117;85;26073;-93
2022/09/20 09:54:50;;;;;;;4.78;2.12;;;;;;;20.04;86.64;100599.05;3409110;85;98319;-91
2022/09/20 10:00:10;;;;;;;3.95;2.10;;;;;;;20.23;83.74;100601.00;3417883;84;26658;-90
2022/09/20 10:05:36;;;;;;;2.80;1.55;;;;;;;20.82;82.66;100599.98;3418951;83;98943;-91
2022/09/20 10:10:43;;;;;;;4.25;1.98;;;;;;;21.44;81.61;100593.80;3419144;85;25908;-90
2022/09/20 10:16:11;;;;;;;4.72;1.70;;;;;;;22.20;78.32;100597.38;3410136;85;98441;-90
2022/09/20 10:21:45;;;;;;;3.52;1.70;;;;;;;22.59;74.59;100602.45;3419245;85;99098;-91
2022/09/20 10:27:28;;;;;;;5.12;1.70;;;;;;;22.90;72.69;100593.52;3438724;84;26165;-90
2022/09/20 10:32:48;;;;;;;4.30;1.40;;;;;;;23.26;72.79;100600.83;3422923;83;98806;-89
2022/09/20 10:38:29;;;;;;;5.03;1.62;;;;;;;23.81;71.52;100606.23;3427407;84;25960;-89
2022/09/20 10:44:12;;;;;;;4.92;1.70;;;;;;;24.04;68.70;100608.52;3406512;85;98870;-86
2022/09/20 10:49:27;;;;;;;6.70;1.92;;;;;;;23.99;67.35;100605.55;3439537;84;25990;-85
2022/09/20 10:55:03;;;;;;;3.50;1.55;;;;;;;23.68;64.97;100611.19;3396204;83;98564;-86
2022/09/20 11:00:25;;;;;;;3.47;1.50;;;;;;;23.63;64.76;100609.59;3450228;84;26533;-86
2022/09/20 11:05:53;;;;;;;4.28;1.42;;;;;;;23.89;60.83;100596.92;3468973;82;98674;-86
2022/09/20 11:10:59;;;;;;;3.45;1.30;;;;;;;23.73;60.94;100601.36;3465737;83;26042;-86
2022/09/20 11:16:27;;;;;;;3.20;1.70;;;;;;;23.65;61.09;100601.50;3442239;84;98192;-86
2022/09/20 11:21:43;;;;;;;2.98;1.45;;;;;;;23.66;59.35;100598.20;3453164;84;98796;-85
2022/09/20 11:26:54;;;;;;;3.92;1.70;;;;;;;23.31;59.54;100600.20;3470629;83;26561;-85
2022/09/20 11:32:01;;;;;;;4.40;2.00;;;;;;;23.10;60.21;100599.59;3474339;83;98641;-86
2022/09/20 11:37:02;;;;;;;4.75;2.42;;;;;;;22.86;59.30;100602.07;3471791;83;26605;-85
2022/09/20 11:42:06;;;;;;;2.52;1.47;;;;;;;22.65;59.87;100607.03;3469023;82;98453;-85
2022/09/20 11:47:30;;;;;;;4.15;1.35;;;;;;;22.42;59.66;100605.23;3493906;82;26006;-85
2022/09/20 11:53:07;;;;;;;3.77;1.60;;;;;;;22.43;60.23;100618.80;3473178;82;98587;-85
2022/09/20 11:58:22;;;;;;;2.12;1.20;;;;;;;22.33;61.20;100623.36;3434572;84;26364;-84
2022/09/20 12:03:37;;;;;;;3.62;1.20;;;;;;;22.20;60.55;100627.61;3462109;83;98689;-85
2022/09/20 12:08:40;;;;;;;1.82;1.02;;;;;;;22.03;60.65;100630.98;3463504;84;25914;-85
2022/09/20 12:13:52;;;;;;;2.22;1.22;;;;;;;21.79;61.23;100636.14;3464580;83;98587;-85
2022/09/20 12:18:58;;;;;;;2.25;1.40;;;;;;;21.27;61.61;100631.52;3476921;82;25890;-85
2022/09/20 12:24:06;;;;;;;2.30;0.90;;;;;;;21.07;63.20;100637.09;3473768;82;98779;-85
2022/09/20 12:29:31;;;;;;;3.12;1.57;;;;;;;20.86;63.69;100634.25;3476111;83;25879;-85
2022/09/20 12:34:35;;;;;;;2.83;1.07;;;;;;;20.64;64.03;100633.26;3471115;82;98809;-85
2022/09/20 12:39:38;;;;;;;1.98;1.30;;;;;;;20.45;63.85;100629.19;3483388;83;26456;-85
2022/09/20 12:44:57;;;;;;;2.37;1.00;;;;;;;20.35;64.49;100640.82;3468457;83;98674;-86
2022/09/20 12:55:40;;;;;;;1.65;0.68;;;;;;;19.79;63.77;100653.94;3462485;82;98624;-85
2022/09/20 13:00:58;;;;;;;2.05;0.72;;;;;;;19.42;64.26;100661.34;3453392;82;26513;-85
2022/09/20 13:06:11;;;;;;;3.22;0.95;;;;;;;19.13;64.59;100659.70;3418344;85;98233;-84
2022/09/20 13:11:29;;;;;;;1.87;0.40;;;;;;;18.86;64.86;100657.64;3422738;85;98553;-84
2022/09/20 13:16:47;;;;;;;0.68;0.60;;;;;;;18.68;64.68;100657.78;3399810;83;26252;-84
2022/09/20 13:22:23;;;;;;;0.80;0.50;;;;;;;18.51;65.41;100655.51;3394149;85;98576;-84
2022/09/20 13:27:29;;;;;;;2.15;0.57;;;;;;;18.28;65.34;100665.23;3402802;85;25833;-85
2022/09/20 13:32:33;;;;;;;0.63;0.43;;;;;;;18.03;65.00;100666.85;3372752;85;98537;-85
2022/09/20 13:37:41;;;;;;;0.95;0.47;;;;;;;17.80;65.50;100665.38;3400150;85;26237;-84
2022/09/20 13:42:43;;;;;;;0.80;0.40;;;;;;;17.71;65.97;100665.14;3397234;84;98734;-83
2022/09/20 13:47:51;;;;;;;1.03;0.50;;;;;;;17.64;66.67;100663.81;3402315;84;25989;-84
2022/09/20 13:52:56;;;;;;;1.98;0.65;;;;;;;17.60;67.18;100658.93;3402260;85;98695;-86
2022/09/20 13:58:07;;;;;;;2.15;0.78;;;;;;;17.58;67.71;100666.89;3408955;84;26498;-85
2022/09/20 14:03:14;;;;;;;2.27;0.72;;;;;;;17.43;67.49;100664.91;3450892;83;98642;-84
2022/09/20 14:08:29;;;;;;;2.80;0.95;;;;;;;17.25;67.62;100668.48;3445492;84;25851;-84
2022/09/20 14:13:38;;;;;;;1.93;0.67;;;;;;;17.11;67.67;100662.31;3466608;83;98840;-85
2022/09/20 14:18:41;;;;;;;1.62;0.60;;;;;;;16.96;68.20;100669.23;3470253;82;26199;-84
2022/09/20 14:24:09;;;;;;;0.37;0.30;;;;;;;16.81;68.65;100670.58;3465670;83;98612;-84
2022/09/20 14:29:37;;;;;;;1.23;0.47;;;;;;;16.68;68.92;100672.30;3475231;82;26529;-86
2022/09/20 14:34:40;;;;;;;0.98;0.42;;;;;;;16.55;69.07;100676.19;3422921;84;98382;-83
2022/09/20 14:40:05;;;;;;;1.20;0.45;;;;;;;16.38;69.11;100676.31;3462243;83;26339;-83
2022/09/20 14:45:09;;;;;;;1.95;0.70;;;;;;;16.27;69.42;100683.94;3473097;82;98817;-83
2022/09/20 14:50:28;;;;;;;1.72;0.90;;;;;;;16.16;70.24;100687.40;3467492;84;25938;-84
2022/09/20 14:55:32;;;;;;;1.07;0.40;;;;;;;16.03;70.43;100701.59;3467757;82;98799;-85
2022/09/20 15:00:50;;;;;;;3.20;1.27;;;;;;;15.89;70.42;100695.53;3478362;82;26384;-84
2022/09/20 15:05:52;;;;;;;3.45;1.62;;;;;;;15.79;70.92;100703.31;3429960;84;98280;-84
2022/09/20 15:10:53;;;;;;;2.13;1.30;;;;;;;15.68;70.97;100703.97;3417077;85;33277;-84
2022/09/20 15:15:54;;;;;;;2.40;0.70;;;;;;;15.60;71.27;100705.19;3408216;84;98722;-87
2022/09/20 15:20:55;;;;;;;2.97;1.37;;;;;;;15.51;71.68;100699.30;3391676;85;33261;-85
2022/09/20 15:25:57;;;;;;;1.87;0.50;;;;;;;15.39;71.59;100702.53;3421374;84;98140;-86
2022/09/20 15:30:58;;;;;;;0.93;0.43;;;;;;;15.25;71.48;100699.77;3430342;84;33709;-85
2022/09/20 15:36:02;;;;;;;2.63;0.50;;;;;;;15.16;71.42;100705.55;3425788;84;98416;-85
2022/09/20 15:41:03;;;;;;;1.57;0.60;;;;;;;15.05;71.52;100706.17;3430618;85;25986;-85
2022/09/20 15:46:20;;;;;;;0.83;0.60;;;;;;;14.96;71.62;100721.84;3405928;84;98202;-83
2022/09/20 15:51:22;;;;;;;3.47;0.80;;;;;;;14.85;71.49;100726.61;3413570;84;98838;-83
2022/09/20 15:56:33;;;;;;;1.55;0.72;;;;;;;14.74;71.75;100729.98;3423644;84;26354;-86
2022/09/20 16:01:38;;;;;;;1.65;0.90;;;;;;;14.65;71.81;100739.88;3420294;84;98888;-86
2022/09/20 16:06:42;;;;;;;2.57;1.00;;;;;;;14.55;72.18;100744.23;3417891;83;26236;-86
2022/09/20 16:11:43;;;;;;;1.35;0.50;;;;;;;14.33;72.57;100742.64;3421141;85;98670;-86
2022/09/20 16:16:43;;;;;;;3.33;0.73;;;;;;;14.33;72.57;100742.64;3415917;84;33669;-87
2022/09/20 16:21:49;;;;;;;3.00;1.30;;;;;;;14.21;72.93;100745.00;3425706;84;98788;-86
2022/09/20 16:26:50;;;;;;;3.77;1.10;;;;;;;14.03;73.15;100749.69;3415931;85;26850;-86
2022/09/20 16:31:53;;;;;;;6.50;1.00;;;;;;;13.91;73.42;100750.83;3424040;84;98985;-85
2022/09/20 16:37:00;;;;;;;2.47;1.10;;;;;;;13.83;74.30;100756.73;3397786;84;26503;-86
2022/09/20 16:42:05;;;;;;;2.65;0.90;;;;;;;13.63;74.48;100743.83;3424930;84;98847;-86
2022/09/20 16:47:09;;;;;;;3.70;1.33;;;;;;;13.62;74.84;100758.08;3423690;84;25967;-85
2022/09/20 16:52:10;;;;;;;2.30;1.00;;;;;;;13.49;75.69;100764.53;3438345;83;98892;-86
2022/09/20 16:57:14;;;;;;;2.80;1.13;;;;;;;13.42;76.54;100782.45;3419506;84;33253;-86
2022/09/20 17:02:14;;;;;;;2.87;1.27;;;;;;;13.34;77.08;100781.41;3411359;84;98783;-86
2022/09/20 17:07:15;;;;;;;3.80;1.50;;;;;;;13.26;77.48;100793.05;3407071;84;33196;-85
2022/09/20 17:12:20;;;;;;;4.83;2.10;;;;;;;13.19;77.91;100797.73;3423211;84;98802;-86
2022/09/20 17:17:21;;;;;;;9.38;3.27;;;;;;;13.11;78.82;100816.81;3424212;83;26495;-86
2022/09/20 17:22:22;;;;;;;5.67;2.80;;;;;;;13.11;78.82;100816.81;3432853;83;98827;-86
2022/09/20 17:27:23;;;;;;;7.33;2.63;;;;;;;13.00;77.87;100825.04;3424910;85;33672;-85
2022/09/20 17:32:24;;;;;;;4.20;1.93;;;;;;;12.97;78.31;100835.47;3391219;84;98965;-87
2022/09/20 17:37:25;;;;;;;5.50;2.27;;;;;;;12.91;78.29;100839.73;3409464;83;33876;-86
2022/09/20 17:42:27;;;;;;;6.90;2.43;;;;;;;12.84;78.78;100839.67;3414585;83;98564;-86
2022/09/20 17:47:28;;;;;;;4.87;2.57;;;;;;;12.78;79.61;100848.11;3421303;84;33716;-86
2022/09/20 17:52:29;;;;;;;5.90;2.57;;;;;;;12.69;79.88;100847.63;3385105;84;98577;-85
2022/09/20 17:57:30;;;;;;;5.63;2.63;;;;;;;12.61;80.55;100860.37;3407651;84;34560;-86
2022/09/20 18:02:32;;;;;;;7.97;3.60;;;;;;;12.53;80.97;100868.39;3403802;84;98612;-87
2022/09/20 18:07:33;;;;;;;7.77;3.27;;;;;;;12.42;81.08;100873.78;3401573;84;34371;-86
2022/09/20 18:12:34;;;;;;;10.10;4.17;;;;;;;12.31;81.61;100873.48;3397777;84;98612;-86
2022/09/20 18:17:35;;;;;;;9.63;4.20;;;;;;;12.19;81.79;100879.23;3411099;85;33707;-85
2022/09/20 18:22:37;;;;;;;9.40;3.30;;;;;;;12.08;81.80;100883.83;3383743;85;99171;-87
2022/09/20 18:27:38;;;;;;;8.23;3.20;;;;;;;11.98;82.56;100892.19;3410682;84;33778;-86
2022/09/20 18:32:43;;;;;;;6.73;2.80;;;;;;;11.87;82.95;100899.53;3391300;85;99002;-85
2022/09/20 18:37:42;;;;;;;7.60;3.10;;;;;;;11.78;83.18;100910.04;3418534;83;33197;-85
2022/09/20 18:42:46;;;;;;;6.97;2.87;;;;;;;11.68;83.23;100914.84;3382869;85;99051;-85
2022/09/20 18:47:47;;;;;;;7.67;3.03;;;;;;;11.58;83.93;100918.21;3424367;84;26484;-85
2022/09/20 18:52:50;;;;;;;8.37;3.20;;;;;;;11.51;84.43;100931.86;3421590;84;98516;-86
2022/09/20 18:57:51;;;;;;;10.80;4.00;;;;;;;11.43;84.54;100932.94;3439402;83;26316;-87
2022/09/20 19:03:04;;;;;;;11.40;4.20;;;;;;;11.33;85.07;100934.94;3453029;82;98653;-87
2022/09/20 19:08:22;;;;;;;11.20;4.10;;;;;;;11.26;85.11;100940.91;3460591;83;26325;-86
2022/09/20 19:13:35;;;;;;;10.00;3.67;;;;;;;11.15;85.29;100944.88;3446694;82;99111;-86
2022/09/20 19:19:13;;;;;;;7.50;3.53;;;;;;;11.06;85.52;100951.81;3470033;83;25920;-87
2022/09/20 19:24:38;;;;;;;7.80;3.20;;;;;;;10.98;86.04;100950.88;3468648;82;98563;-86
2022/09/20 19:29:40;;;;;;;5.47;2.80;;;;;;;10.89;86.39;100958.58;3473194;83;26031;-86
2022/09/20 19:34:43;;;;;;;6.27;2.97;;;;;;;10.82;86.85;100959.03;3458048;84;98750;-87
2022/09/20 19:40:17;;;;;;;8.13;3.47;;;;;;;10.76;87.14;100961.30;3464627;82;26177;-86
2022/09/20 19:45:30;;;;;;;7.77;3.07;;;;;;;10.70;87.19;100963.33;3442190;83;98769;-84
2022/09/20 19:50:45;;;;;;;8.13;3.20;;;;;;;10.63;87.64;100967.33;3459508;83;26706;-86
2022/09/20 19:55:53;;;;;;;6.08;2.60;;;;;;;10.56;87.75;100974.05;3450906;83;98453;-86
2022/09/20 20:00:57;;;;;;;6.47;3.30;;;;;;;10.48;88.13;100976.47;3461499;82;26264;-87
2022/09/20 20:06:06;;;;;;;7.07;2.93;;;;;;;10.45;88.42;100979.36;3474902;83;98370;-86
2022/09/20 20:11:36;;;;;;;7.30;2.87;;;;;;;10.42;88.69;100987.55;3437502;83;99100;-87
2022/09/20 20:17:05;;;;;;;11.00;4.03;;;;;;;10.38;89.01;100986.67;3478236;83;26531;-87
2022/09/20 20:22:48;;;;;;;8.73;4.20;;;;;;;10.32;89.17;100986.17;3450487;82;98837;-86
2022/09/20 20:27:49;;;;;;;7.53;3.53;;;;;;;10.26;89.28;100993.69;3451478;84;25953;-85
2022/09/20 20:32:59;;;;;;;11.03;5.13;;;;;;;10.20;89.61;100995.14;3431605;83;98676;-87
2022/09/20 20:38:04;;;;;;;14.17;8.77;;;;;;;10.16;89.70;101003.31;3453363;84;25936;-86
2022/09/20 20:43:08;;;;;;;27.77;18.13;;;;;;;10.10;89.74;101015.77;3472437;83;98792;-87
2022/09/20 20:48:09;;;;;;;13.47;8.10;;;;;;;10.07;89.98;101021.16;3474321;84;26467;-87
2022/09/20 20:53:10;;;;;;;10.63;5.40;;;;;;;10.03;90.07;101026.55;3459085;84;98606;-87
2022/09/20 20:58:11;;;;;;;12.27;5.90;;;;;;;9.97;90.48;101029.95;3478700;82;33271;-86
2022/09/20 21:03:12;;;;;;;10.37;4.10;;;;;;;9.88;89.88;101032.09;3451829;82;99024;-86
2022/09/20 21:08:13;;;;;;;8.50;3.80;;;;;;;9.78;90.31;101037.56;3422217;85;33366;-86
2022/09/20 21:13:14;;;;;;;11.93;4.50;;;;;;;9.76;90.86;101041.23;3417678;84;98564;-87
2022/09/20 21:18:15;;;;;;;8.00;3.50;;;;;;;9.73;91.18;101039.78;3427317;84;33189;-86
2022/09/20 21:23:15;;;;;;;7.27;3.10;;;;;;;9.71;91.26;101037.97;3423521;85;98515;-86
2022/09/20 21:28:17;;;;;;;9.50;3.47;;;;;;;9.66;91.50;101043.14;3407518;84;33203;-86
2022/09/20 21:33:18;;;;;;;8.67;3.27;;;;;;;9.63;91.44;101043.06;3433506;84;98161;-86
2022/09/20 21:38:19;;;;;;;7.70;2.97;;;;;;;9.59;91.80;101057.31;3396175;85;33135;-86
2022/09/20 21:43:20;;;;;;;7.55;3.10;;;;;;;9.57;91.90;101057.66;3384213;84;98404;-86
2022/09/20 21:48:22;;;;;;;6.15;2.77;;;;;;;9.45;92.15;101045.39;3435627;84;32390;-87
2022/09/20 21:53:23;;;;;;;7.37;3.10;;;;;;;9.52;92.13;101063.98;3418449;85;98151;-85
2022/09/20 21:58:25;;;;;;;7.63;2.67;;;;;;;9.47;92.42;101070.55;3416657;84;32332;-86
2022/09/20 22:03:35;;;;;;;7.40;2.80;;;;;;;9.44;92.56;101060.25;3406423;84;98250;-86
2022/09/20 22:08:40;;;;;;;5.17;2.27;;;;;;;9.42;92.87;101063.94;3416700;85;32266;-86
2022/09/20 22:13:44;;;;;;;13.03;2.85;;;;;;;9.38;92.95;101068.53;3419413;84;98533;-86
2022/09/20 22:18:45;;;;;;;8.93;3.20;;;;;;;9.33;92.94;101062.52;3421201;85;31365;-86
2022/09/20 22:23:52;;;;;;;6.37;2.75;;;;;;;9.34;93.04;101072.36;3417902;85;98524;-87
2022/09/20 22:28:54;;;;;;;7.90;2.97;;;;;;;9.30;93.12;101074.20;3405681;84;26544;-87
2022/09/20 22:33:59;;;;;;;7.60;3.10;;;;;;;9.26;93.12;101076.08;3413740;85;98252;-86
2022/09/20 22:39:00;;;;;;;8.03;3.30;;;;;;;9.22;93.25;101088.91;3414778;85;33821;-86
2022/09/20 22:44:02;;;;;;;9.40;3.37;;;;;;;9.19;93.44;101086.29;3413771;85;98479;-86
2022/09/20 22:49:08;;;;;;;6.90;3.33;;;;;;;9.10;93.08;101080.74;3422675;84;29475;-87
2022/09/20 22:54:11;;;;;;;7.67;3.40;;;;;;;9.01;93.25;101078.16;3412429;84;98140;-86
2022/09/20 22:59:13;;;;;;;9.25;3.15;;;;;;;8.95;93.62;101076.00;3437742;84;33377;-86
2022/09/20 23:04:18;;;;;;;9.83;4.30;;;;;;;8.94;93.56;101080.69;3417238;83;98378;-86
2022/09/20 23:09:19;;;;;;;7.75;3.77;;;;;;;8.94;93.93;101075.19;3442345;83;32777;-86
2022/09/20 23:14:21;;;;;;;8.40;3.63;;;;;;;8.96;94.15;101077.03;3439915;83;98438;-86
2022/09/20 23:19:22;;;;;;;8.78;3.90;;;;;;;8.99;94.50;101079.66;3447067;83;33571;-86
2022/09/20 23:24:23;;;;;;;8.03;3.63;;;;;;;9.02;94.61;101077.00;3423966;83;98420;-86
2022/09/20 23:29:25;;;;;;;8.90;3.90;;;;;;;9.05;94.83;101086.48;3440048;83;32684;-86
2022/09/20 23:34:26;;;;;;;9.63;4.03;;;;;;;9.07;94.86;101083.61;3440688;83;98341;-86
2022/09/20 23:39:27;;;;;;;8.30;3.87;;;;;;;9.09;94.90;101084.05;3442297;84;31699;-85
2022/09/20 23:44:28;;;;;;;8.70;3.63;;;;;;;9.14;94.96;101083.80;3433308;83;98375;-86
2022/09/20 23:49:29;;;;;;;7.67;3.57;;;;;;;9.18;95.10;101087.45;3428611;85;31768;-86
2022/09/20 23:54:30;;;;;;;8.80;4.07;;;;;;;9.23;95.09;101085.01;3445296;84;98428;-86
2022/09/20 23:59:32;;;;;;;7.87;4.00;;;;;;;9.26;95.17;101092.56;3454550;83;31653;-86
